Anzahl Datensätze: 287
min. Temperatur: 6.9 °C
max. Temperatur: 19.7 °C
max. Windgeschwindigkeit: 35.3 km/h
Niederschlagsumme: 0.0 mm
| Datum |
Zeit |
Temp °C |
Feuchte % |
Taupunkt °C |
Luftdruck hPa |
Wind km/h |
Windrichtung |
Strahlung w/m² |
Niederschlag mm |
|---|---|---|---|---|---|---|---|---|---|
| 22.09.2021 | 00:04 | 9.0 | 89 | 7.3 | 1029.0 | 3.2 | N | 0.0 | |
| 22.09.2021 | 00:08 | 9.0 | 89 | 7.3 | 1029.0 | 3.2 | N | 0.0 | |
| 22.09.2021 | 00:14 | 9.1 | 89 | 7.4 | 1029.0 | 3.2 | N | 0.0 | |
| 22.09.2021 | 00:18 | 9.1 | 88 | 7.2 | 1029.1 | 3.2 | N | 0.0 | |
| 22.09.2021 | 00:24 | 9.1 | 89 | 7.4 | 1029.1 | 3.2 | N | 0.0 | |
| 22.09.2021 | 00:28 | 9.1 | 88 | 7.2 | 1029.0 | 3.2 | N | 0.0 | |
| 22.09.2021 | 00:34 | 8.9 | 89 | 7.2 | 1029.0 | 3.2 | N | 0.0 | |
| 22.09.2021 | 00:38 | 8.9 | 89 | 7.2 | 1028.9 | 1.4 | N | 0.0 | |
| 22.09.2021 | 00:44 | 8.9 | 89 | 7.2 | 1028.8 | 1.4 | N | 0.0 | |
| 22.09.2021 | 00:48 | 8.8 | 89 | 7.1 | 1028.8 | 1.4 | N | 0.0 | |
| 22.09.2021 | 00:54 | 8.6 | 89 | 6.9 | 1028.8 | 1.4 | N | 0.0 | |
| 22.09.2021 | 00:58 | 8.6 | 90 | 7.1 | 1028.8 | 1.4 | N | 0.0 | |
| 22.09.2021 | 01:04 | 8.6 | 90 | 7.1 | 1028.7 | 0.0 | N | 0.0 | |
| 22.09.2021 | 01:08 | 8.4 | 90 | 6.9 | 1028.7 | 1.4 | N | 0.0 | |
| 22.09.2021 | 01:14 | 8.4 | 90 | 6.9 | 1028.7 | 3.2 | N | 0.0 | |
| 22.09.2021 | 01:18 | 8.4 | 90 | 6.9 | 1028.7 | 3.2 | N | 0.0 | |
| 22.09.2021 | 01:24 | 8.5 | 90 | 7.0 | 1028.7 | 3.2 | N | 0.0 | |
| 22.09.2021 | 01:28 | 8.5 | 90 | 7.0 | 1028.7 | 3.2 | N | 0.0 | |
| 22.09.2021 | 01:34 | 8.6 | 89 | 6.9 | 1028.6 | 3.2 | N | 0.0 | |
| 22.09.2021 | 01:38 | 8.6 | 89 | 6.9 | 1028.6 | 4.7 | N | 0.0 | |
| 22.09.2021 | 01:44 | 8.6 | 89 | 6.9 | 1028.5 | 3.2 | N | 0.0 | |
| 22.09.2021 | 01:48 | 8.6 | 89 | 6.9 | 1028.5 | 3.2 | N | 0.0 | |
| 22.09.2021 | 01:54 | 8.5 | 89 | 6.8 | 1028.5 | 3.2 | N | 0.0 | |
| 22.09.2021 | 01:58 | 8.5 | 89 | 6.8 | 1028.5 | 3.2 | N | 0.0 | |
| 22.09.2021 | 02:04 | 8.4 | 89 | 6.7 | 1028.4 | 3.2 | N | 0.0 | |
| 22.09.2021 | 02:08 | 8.4 | 89 | 6.7 | 1028.3 | 4.7 | N | 0.0 | |
| 22.09.2021 | 02:14 | 8.5 | 89 | 6.8 | 1028.3 | 3.2 | N | 0.0 | |
| 22.09.2021 | 02:18 | 8.5 | 89 | 6.8 | 1028.3 | 3.2 | N | 0.0 | |
| 22.09.2021 | 02:24 | 8.4 | 89 | 6.7 | 1028.4 | 3.2 | N | 0.0 | |
| 22.09.2021 | 02:28 | 8.3 | 90 | 6.8 | 1028.4 | 3.2 | NNW | 0.0 | |
| 22.09.2021 | 02:34 | 8.4 | 90 | 6.9 | 1028.4 | 4.7 | NNW | 0.0 | |
| 22.09.2021 | 02:38 | 8.3 | 89 | 6.6 | 1028.3 | 4.7 | NNW | 0.0 | |
| 22.09.2021 | 02:44 | 8.3 | 90 | 6.8 | 1028.3 | 4.7 | N | 0.0 | |
| 22.09.2021 | 02:48 | 8.4 | 90 | 6.9 | 1028.3 | 4.7 | N | 0.0 | |
| 22.09.2021 | 02:54 | 8.3 | 90 | 6.8 | 1028.4 | 3.2 | N | 0.0 | |
| 22.09.2021 | 02:58 | 8.3 | 90 | 6.8 | 1028.4 | 3.2 | N | 0.0 | |
| 22.09.2021 | 03:04 | 8.3 | 90 | 6.8 | 1028.4 | 4.7 | N | 0.0 | |
| 22.09.2021 | 03:08 | 8.3 | 89 | 6.6 | 1028.4 | 4.7 | NNW | 0.0 | |
| 22.09.2021 | 03:14 | 8.3 | 90 | 6.8 | 1028.3 | 4.7 | N | 0.0 | |
| 22.09.2021 | 03:18 | 8.3 | 90 | 6.8 | 1028.3 | 4.7 | N | 0.0 | |
| 22.09.2021 | 03:24 | 8.3 | 90 | 6.8 | 1028.3 | 4.7 | NNW | 0.0 | |
| 22.09.2021 | 03:28 | 8.3 | 90 | 6.8 | 1028.3 | 4.7 | NNW | 0.0 | |
| 22.09.2021 | 03:34 | 8.4 | 90 | 6.9 | 1028.4 | 3.2 | N | 0.0 | |
| 22.09.2021 | 03:38 | 8.3 | 89 | 6.6 | 1028.5 | 1.4 | N | 0.0 | |
| 22.09.2021 | 03:44 | 8.2 | 90 | 6.7 | 1028.5 | 1.4 | N | 0.0 | |
| 22.09.2021 | 03:48 | 8.2 | 90 | 6.7 | 1028.5 | 1.4 | N | 0.0 | |
| 22.09.2021 | 03:54 | 8.2 | 90 | 6.7 | 1028.4 | 3.2 | N | 0.0 | |
| 22.09.2021 | 03:58 | 8.2 | 90 | 6.7 | 1028.4 | 4.7 | N | 0.0 | |
| 22.09.2021 | 04:04 | 8.2 | 90 | 6.7 | 1028.4 | 3.2 | N | 0.0 | |
| 22.09.2021 | 04:08 | 8.2 | 90 | 6.7 | 1028.4 | 3.2 | N | 0.0 | |
| 22.09.2021 | 04:14 | 8.1 | 90 | 6.6 | 1028.3 | 3.2 | N | 0.0 | |
| 22.09.2021 | 04:18 | 8.1 | 90 | 6.6 | 1028.3 | 3.2 | N | 0.0 | |
| 22.09.2021 | 04:24 | 8.0 | 90 | 6.5 | 1028.3 | 3.2 | N | 0.0 | |
| 22.09.2021 | 04:28 | 7.9 | 90 | 6.4 | 1028.3 | 3.2 | N | 0.0 | |
| 22.09.2021 | 04:34 | 7.8 | 91 | 6.4 | 1028.2 | 3.2 | NNW | 0.0 | |
| 22.09.2021 | 04:38 | 7.8 | 91 | 6.4 | 1028.2 | 1.4 | NNW | 0.0 | |
| 22.09.2021 | 04:44 | 7.8 | 91 | 6.4 | 1028.2 | 1.4 | N | 0.0 | |
| 22.09.2021 | 04:48 | 7.8 | 91 | 6.4 | 1028.1 | 3.2 | N | 0.0 | |
| 22.09.2021 | 04:54 | 7.8 | 91 | 6.4 | 1028.1 | 3.2 | N | 0.0 | |
| 22.09.2021 | 04:58 | 7.8 | 91 | 6.4 | 1028.0 | 1.4 | N | 0.0 | |
| 22.09.2021 | 05:04 | 7.7 | 91 | 6.3 | 1028.0 | 3.2 | N | 0.0 | |
| 22.09.2021 | 05:08 | 7.7 | 91 | 6.3 | 1028.0 | 3.2 | N | 0.0 | |
| 22.09.2021 | 05:14 | 7.7 | 91 | 6.3 | 1028.1 | 3.2 | N | 0.0 | |
| 22.09.2021 | 05:18 | 7.7 | 91 | 6.3 | 1028.1 | 3.2 | N | 0.0 | |
| 22.09.2021 | 05:24 | 7.6 | 91 | 6.2 | 1028.2 | 3.2 | N | 0.0 | |
| 22.09.2021 | 05:28 | 7.5 | 92 | 6.3 | 1028.2 | 1.4 | N | 0.0 | |
| 22.09.2021 | 05:34 | 7.4 | 92 | 6.2 | 1028.2 | 1.4 | N | 0.0 | |
| 22.09.2021 | 05:38 | 7.4 | 92 | 6.2 | 1028.1 | 3.2 | N | 0.0 | |
| 22.09.2021 | 05:44 | 7.6 | 92 | 6.4 | 1028.1 | 3.2 | N | 0.0 | |
| 22.09.2021 | 05:48 | 7.5 | 92 | 6.3 | 1028.2 | 3.2 | N | 0.0 | |
| 22.09.2021 | 05:54 | 7.4 | 92 | 6.2 | 1028.1 | 3.2 | NNO | 0.0 | |
| 22.09.2021 | 05:58 | 7.3 | 92 | 6.1 | 1028.2 | 4.7 | N | 0.0 | |
| 22.09.2021 | 06:04 | 7.3 | 92 | 6.1 | 1028.2 | 4.7 | N | 0.0 | |
| 22.09.2021 | 06:08 | 7.3 | 93 | 6.2 | 1028.3 | 4.7 | N | 0.0 | |
| 22.09.2021 | 06:14 | 7.3 | 93 | 6.2 | 1028.4 | 4.7 | NNO | 0.0 | |
| 22.09.2021 | 06:18 | 7.4 | 92 | 6.2 | 1028.4 | 3.2 | NNO | 0.0 | |
| 22.09.2021 | 06:24 | 7.3 | 92 | 6.1 | 1028.3 | 1.4 | NNO | 0.0 | |
| 22.09.2021 | 06:28 | 7.3 | 92 | 6.1 | 1028.4 | 1.4 | NNO | 0.0 | |
| 22.09.2021 | 06:34 | 7.2 | 93 | 6.1 | 1028.4 | 3.2 | N | 0.0 | |
| 22.09.2021 | 06:38 | 7.2 | 93 | 6.1 | 1028.4 | 3.2 | N | 0.0 | |
| 22.09.2021 | 06:44 | 7.3 | 93 | 6.2 | 1028.4 | 3.2 | N | 0.0 | |
| 22.09.2021 | 06:48 | 7.2 | 93 | 6.1 | 1028.5 | 1.4 | N | 0.0 | |
| 22.09.2021 | 06:54 | 7.1 | 93 | 6.0 | 1028.4 | 3.2 | N | 0.0 | |
| 22.09.2021 | 06:58 | 7.1 | 93 | 6.0 | 1028.3 | 3.2 | N | 0.0 | |
| 22.09.2021 | 07:04 | 7.0 | 94 | 6.1 | 1028.3 | 3.2 | N | 0.0 | |
| 22.09.2021 | 07:08 | 6.9 | 94 | 6.0 | 1028.4 | 3.2 | N | 0.0 | |
| 22.09.2021 | 07:14 | 6.9 | 94 | 6.0 | 1028.4 | 3.2 | N | 0.0 | |
| 22.09.2021 | 07:18 | 7.0 | 94 | 6.1 | 1028.4 | 4.7 | N | 0.0 | |
| 22.09.2021 | 07:24 | 7.0 | 94 | 6.1 | 1028.5 | 4.7 | N | 0.0 | |
| 22.09.2021 | 07:28 | 7.0 | 95 | 6.3 | 1028.6 | 4.7 | N | 0.0 | |
| 22.09.2021 | 07:34 | 7.0 | 94 | 6.1 | 1028.6 | 3.2 | NNW | 0.0 | |
| 22.09.2021 | 07:38 | 7.0 | 95 | 6.3 | 1028.6 | 3.2 | NNW | 0.0 | |
| 22.09.2021 | 07:44 | 7.1 | 95 | 6.4 | 1028.6 | 3.2 | N | 0.0 | |
| 22.09.2021 | 07:48 | 7.2 | 95 | 6.5 | 1028.5 | 4.7 | N | 0.0 | |
| 22.09.2021 | 07:54 | 7.3 | 95 | 6.6 | 1028.5 | 4.7 | NNW | 0.0 | |
| 22.09.2021 | 08:00 | 7.4 | 95 | 6.7 | 1028.5 | 4.7 | N | 0.0 | |
| 22.09.2021 | 08:04 | 7.6 | 94 | 6.7 | 1028.5 | 4.7 | N | 0.0 | |
| 22.09.2021 | 08:08 | 7.6 | 94 | 6.7 | 1028.4 | 4.7 | NNO | 0.0 | |
| 22.09.2021 | 08:14 | 7.8 | 94 | 6.9 | 1028.5 | 4.7 | NNW | 0.0 | |
| 22.09.2021 | 08:18 | 7.8 | 94 | 6.9 | 1028.5 | 4.7 | N | 0.0 | |
| 22.09.2021 | 08:24 | 7.9 | 93 | 6.8 | 1028.5 | 4.7 | NNW | 0.0 | |
| 22.09.2021 | 08:28 | 8.0 | 93 | 6.9 | 1028.5 | 4.7 | NNW | 0.0 | |
| 22.09.2021 | 08:34 | 8.2 | 93 | 7.1 | 1028.6 | 3.2 | N | 0.0 | |
| 22.09.2021 | 08:38 | 8.3 | 93 | 7.2 | 1028.6 | 3.2 | NNW | 812 | 0.0 |
| 22.09.2021 | 08:44 | 8.5 | 93 | 7.4 | 1028.7 | 3.2 | NNO | 779 | 0.0 |
| 22.09.2021 | 08:48 | 8.7 | 92 | 7.5 | 1028.7 | 3.2 | NNO | 701 | 0.0 |
| 22.09.2021 | 08:54 | 9.0 | 92 | 7.8 | 1028.8 | 4.7 | NNW | 434 | 0.0 |
| 22.09.2021 | 08:58 | 9.2 | 91 | 7.8 | 1028.8 | 4.7 | N | 132 | 0.0 |
| 22.09.2021 | 09:04 | 9.4 | 90 | 7.8 | 1028.8 | 4.7 | N | 137 | 0.0 |
| 22.09.2021 | 09:08 | 9.6 | 90 | 8.0 | 1028.8 | 3.2 | NNO | 134 | 0.0 |
| 22.09.2021 | 09:14 | 9.7 | 89 | 8.0 | 1028.9 | 3.2 | N | 132 | 0.0 |
| 22.09.2021 | 09:18 | 9.8 | 89 | 8.1 | 1029.0 | 4.7 | N | 127 | 0.0 |
| 22.09.2021 | 09:24 | 10.1 | 89 | 8.4 | 1029.0 | 6.5 | N | 127 | 0.0 |
| 22.09.2021 | 09:28 | 10.1 | 88 | 8.2 | 1029.0 | 6.5 | N | 158 | 0.0 |
| 22.09.2021 | 09:34 | 10.3 | 87 | 8.2 | 1029.0 | 4.7 | NNO | 163 | 0.0 |
| 22.09.2021 | 09:38 | 10.4 | 87 | 8.3 | 1028.9 | 4.7 | NNO | 153 | 0.0 |
| 22.09.2021 | 09:44 | 10.7 | 86 | 8.5 | 1029.0 | 6.5 | N | 169 | 0.0 |
| 22.09.2021 | 09:48 | 10.8 | 86 | 8.6 | 1029.0 | 6.5 | NNO | 181 | 0.0 |
| 22.09.2021 | 09:54 | 11.0 | 86 | 8.7 | 1028.9 | 6.5 | N | 285 | 0.0 |
| 22.09.2021 | 09:58 | 11.1 | 84 | 8.5 | 1028.9 | 7.9 | NNW | 213 | 0.0 |
| 22.09.2021 | 10:04 | 11.6 | 84 | 9.0 | 1028.9 | 6.5 | N | 181 | 0.0 |
| 22.09.2021 | 10:08 | 11.8 | 84 | 9.2 | 1029.0 | 6.5 | N | 209 | 0.0 |
| 22.09.2021 | 10:14 | 12.3 | 82 | 9.3 | 1029.0 | 6.5 | N | 355 | 0.0 |
| 22.09.2021 | 10:18 | 12.6 | 81 | 9.4 | 1029.0 | 4.7 | NNO | 248 | 0.0 |
| 22.09.2021 | 10:24 | 12.9 | 80 | 9.5 | 1028.9 | 3.2 | NNO | 299 | 0.0 |
| 22.09.2021 | 10:28 | 13.2 | 78 | 9.4 | 1029.0 | 3.2 | NNO | 234 | 0.0 |
| 22.09.2021 | 10:34 | 13.4 | 78 | 9.6 | 1028.9 | 6.5 | NNO | 374 | 0.0 |
| 22.09.2021 | 10:38 | 13.5 | 78 | 9.7 | 1029.0 | 7.9 | NO | 135 | 0.0 |
| 22.09.2021 | 10:44 | 14.1 | 75 | 9.7 | 1029.0 | 4.7 | N | 285 | 0.0 |
| 22.09.2021 | 10:48 | 14.1 | 76 | 9.9 | 1029.1 | 3.2 | N | 265 | 0.0 |
| 22.09.2021 | 10:54 | 14.2 | 75 | 9.8 | 1029.1 | 3.2 | NO | 202 | 0.0 |
| 22.09.2021 | 10:58 | 14.4 | 76 | 10.2 | 1029.1 | 3.2 | NO | 285 | 0.0 |
| 22.09.2021 | 11:04 | 14.8 | 75 | 10.4 | 1029.1 | 6.5 | NNW | 397 | 0.0 |
| 22.09.2021 | 11:08 | 15.1 | 73 | 10.3 | 1029.1 | 4.7 | NNO | 494 | 0.0 |
| 22.09.2021 | 11:14 | 15.4 | 72 | 10.4 | 1029.0 | 3.2 | ONO | 427 | 0.0 |
| 22.09.2021 | 11:18 | 15.6 | 71 | 10.4 | 1029.0 | 3.2 | NNW | 506 | 0.0 |
| 22.09.2021 | 11:24 | 15.6 | 70 | 10.1 | 1029.0 | 4.7 | NNO | 510 | 0.0 |
| 22.09.2021 | 11:28 | 15.8 | 70 | 10.3 | 1029.0 | 4.7 | NO | 575 | 0.0 |
| 22.09.2021 | 11:34 | 15.8 | 68 | 9.9 | 1028.9 | 3.2 | ONO | 555 | 0.0 |
| 22.09.2021 | 11:38 | 16.2 | 68 | 10.3 | 1028.9 | 1.4 | NO | 589 | 0.0 |
| 22.09.2021 | 11:44 | 16.3 | 65 | 9.7 | 1028.8 | 3.2 | N | 592 | 0.0 |
| 22.09.2021 | 11:48 | 16.4 | 62 | 9.1 | 1028.7 | 4.7 | NO | 573 | 0.0 |
| 22.09.2021 | 11:54 | 16.6 | 62 | 9.3 | 1028.8 | 6.5 | ONO | 540 | 0.0 |
| 22.09.2021 | 11:58 | 16.8 | 62 | 9.5 | 1028.6 | 4.7 | ONO | 552 | 0.0 |
| 22.09.2021 | 12:04 | 16.7 | 65 | 10.1 | 1028.5 | 4.7 | NO | 563 | 0.0 |
| 22.09.2021 | 12:08 | 16.9 | 61 | 9.3 | 1028.6 | 4.7 | N | 601 | 0.0 |
| 22.09.2021 | 12:14 | 17.2 | 62 | 9.9 | 1028.5 | 6.5 | ONO | 649 | 0.0 |
| 22.09.2021 | 12:18 | 17.4 | 62 | 10.0 | 1028.4 | 4.7 | NNO | 577 | 0.0 |
| 22.09.2021 | 12:24 | 17.2 | 62 | 9.9 | 1028.4 | 6.5 | ONO | 513 | 0.0 |
| 22.09.2021 | 12:34 | 17.5 | 63 | 10.4 | 1028.3 | 3.2 | N | 591 | 0.0 |
| 22.09.2021 | 12:38 | 17.7 | 61 | 10.1 | 1028.3 | 3.2 | NO | 652 | 0.0 |
| 22.09.2021 | 12:44 | 17.8 | 61 | 10.2 | 1028.2 | 3.2 | ONO | 612 | 0.0 |
| 22.09.2021 | 12:48 | 17.7 | 61 | 10.1 | 1028.1 | 4.7 | NNO | 592 | 0.0 |
| 22.09.2021 | 12:54 | 17.9 | 62 | 10.5 | 1028.1 | 4.7 | NO | 645 | 0.0 |
| 22.09.2021 | 12:58 | 17.9 | 60 | 10.0 | 1028.0 | 4.7 | NNO | 675 | 0.0 |
| 22.09.2021 | 13:04 | 18.0 | 63 | 10.9 | 1027.9 | 4.7 | N | 633 | 0.0 |
| 22.09.2021 | 13:08 | 18.2 | 62 | 10.8 | 1027.9 | 4.7 | NNO | 636 | 0.0 |
| 22.09.2021 | 13:14 | 18.4 | 62 | 11.0 | 1027.8 | 3.2 | NNO | 638 | 0.0 |
| 22.09.2021 | 13:18 | 18.4 | 60 | 10.5 | 1027.8 | 3.2 | NO | 619 | 0.0 |
| 22.09.2021 | 13:24 | 18.4 | 62 | 11.0 | 1027.8 | 4.7 | O | 663 | 0.0 |
| 22.09.2021 | 13:28 | 18.7 | 61 | 11.0 | 1027.7 | 6.5 | NNO | 707 | 0.0 |
| 22.09.2021 | 13:34 | 18.8 | 59 | 10.6 | 1027.7 | 6.5 | NNO | 605 | 0.0 |
| 22.09.2021 | 13:38 | 18.7 | 62 | 11.3 | 1027.7 | 6.5 | NNO | 559 | 0.0 |
| 22.09.2021 | 13:44 | 18.5 | 58 | 10.1 | 1027.6 | 6.5 | ONO | 510 | 0.0 |
| 22.09.2021 | 13:48 | 18.6 | 63 | 11.4 | 1027.6 | 6.5 | NO | 545 | 0.0 |
| 22.09.2021 | 13:54 | 18.9 | 58 | 10.5 | 1027.5 | 6.5 | ONO | 654 | 0.0 |
| 22.09.2021 | 13:58 | 18.9 | 59 | 10.7 | 1027.4 | 4.7 | NNW | 513 | 0.0 |
| 22.09.2021 | 14:04 | 19.0 | 59 | 10.8 | 1027.3 | 4.7 | NNO | 628 | 0.0 |
| 22.09.2021 | 14:08 | 18.8 | 57 | 10.1 | 1027.3 | 3.2 | NNO | 684 | 0.0 |
| 22.09.2021 | 14:14 | 18.9 | 61 | 11.2 | 1027.2 | 1.4 | NNO | 575 | 0.0 |
| 22.09.2021 | 14:18 | 19.3 | 58 | 10.8 | 1027.2 | 1.4 | ONO | 454 | 0.0 |
| 22.09.2021 | 14:24 | 19.2 | 59 | 11.0 | 1027.2 | 4.7 | O | 538 | 0.0 |
| 22.09.2021 | 14:28 | 19.2 | 58 | 10.7 | 1027.1 | 3.2 | NNO | 555 | 0.0 |
| 22.09.2021 | 14:34 | 19.3 | 59 | 11.1 | 1027.0 | 3.2 | NO | 615 | 0.0 |
| 22.09.2021 | 14:38 | 19.5 | 59 | 11.3 | 1026.9 | 4.7 | NO | 577 | 0.0 |
| 22.09.2021 | 14:44 | 19.3 | 58 | 10.8 | 1026.9 | 4.7 | NNO | 461 | 0.0 |
| 22.09.2021 | 14:48 | 19.3 | 57 | 10.6 | 1026.9 | 4.7 | NNO | 513 | 0.0 |
| 22.09.2021 | 14:54 | 19.2 | 58 | 10.7 | 1026.8 | 3.2 | NO | 515 | 0.0 |
| 22.09.2021 | 14:58 | 19.3 | 58 | 10.8 | 1026.8 | 1.4 | NNO | 538 | 0.0 |
| 22.09.2021 | 15:04 | 19.4 | 59 | 11.2 | 1026.6 | 3.2 | NNO | 392 | 0.0 |
| 22.09.2021 | 15:08 | 19.2 | 58 | 10.7 | 1026.6 | 4.7 | ONO | 427 | 0.0 |
| 22.09.2021 | 15:14 | 19.1 | 61 | 11.4 | 1026.5 | 6.5 | N | 397 | 0.0 |
| 22.09.2021 | 15:18 | 18.9 | 61 | 11.2 | 1026.4 | 6.5 | NNO | 401 | 0.0 |
| 22.09.2021 | 15:24 | 19.0 | 61 | 11.3 | 1026.3 | 3.2 | NNO | 309 | 0.0 |
| 22.09.2021 | 15:28 | 18.8 | 62 | 11.4 | 1026.3 | 4.7 | NO | 306 | 0.0 |
| 22.09.2021 | 15:34 | 18.7 | 60 | 10.8 | 1026.1 | 4.7 | NNO | 299 | 0.0 |
| 22.09.2021 | 15:38 | 18.8 | 63 | 11.6 | 1026.0 | 3.2 | NNO | 338 | 0.0 |
| 22.09.2021 | 15:44 | 19.0 | 64 | 12.0 | 1026.0 | 4.7 | NNO | 320 | 0.0 |
| 22.09.2021 | 15:48 | 18.9 | 61 | 11.2 | 1026.0 | 4.7 | NNW | 425 | 0.0 |
| 22.09.2021 | 15:54 | 19.1 | 62 | 11.6 | 1025.9 | 4.7 | NNO | 415 | 0.0 |
| 22.09.2021 | 15:58 | 19.2 | 61 | 11.5 | 1025.9 | 6.5 | N | 399 | 0.0 |
| 22.09.2021 | 16:04 | 19.3 | 60 | 11.3 | 1025.9 | 4.7 | N | 411 | 0.0 |
| 22.09.2021 | 16:08 | 19.4 | 59 | 11.2 | 1025.8 | 3.2 | NO | 422 | 0.0 |
| 22.09.2021 | 16:14 | 19.7 | 61 | 12.0 | 1025.8 | 3.2 | NNO | 397 | 0.0 |
| 22.09.2021 | 16:18 | 19.6 | 60 | 11.6 | 1025.7 | 3.2 | NO | 374 | 0.0 |
| 22.09.2021 | 16:24 | 19.6 | 58 | 11.1 | 1025.7 | 4.7 | NO | 336 | 0.0 |
| 22.09.2021 | 16:28 | 19.3 | 60 | 11.3 | 1025.7 | 6.5 | NO | 299 | 0.0 |
| 22.09.2021 | 16:34 | 19.3 | 62 | 11.8 | 1025.6 | 6.5 | NNW | 341 | 0.0 |
| 22.09.2021 | 16:38 | 19.3 | 60 | 11.3 | 1025.6 | 6.5 | NNO | 322 | 0.0 |
| 22.09.2021 | 16:44 | 19.4 | 60 | 11.4 | 1025.6 | 4.7 | NO | 332 | 0.0 |
| 22.09.2021 | 16:48 | 19.6 | 60 | 11.6 | 1025.5 | 4.7 | ONO | 308 | 0.0 |
| 22.09.2021 | 16:54 | 19.6 | 60 | 11.6 | 1025.4 | 3.2 | NNO | 267 | 0.0 |
| 22.09.2021 | 16:58 | 19.6 | 59 | 11.4 | 1025.4 | 1.4 | NNW | 279 | 0.0 |
| 22.09.2021 | 17:04 | 19.3 | 62 | 11.8 | 1025.4 | 3.2 | NNO | 297 | 0.0 |
| 22.09.2021 | 17:08 | 19.6 | 61 | 11.9 | 1025.3 | 4.7 | NO | 262 | 0.0 |
| 22.09.2021 | 17:14 | 19.4 | 60 | 11.4 | 1025.3 | 6.5 | NO | 216 | 0.0 |
| 22.09.2021 | 17:18 | 19.3 | 61 | 11.6 | 1025.2 | 6.5 | NNO | 251 | 0.0 |
| 22.09.2021 | 17:24 | 19.2 | 62 | 11.7 | 1025.1 | 4.7 | NNO | 244 | 0.0 |
| 22.09.2021 | 17:28 | 19.2 | 61 | 11.5 | 1025.1 | 4.7 | NO | 223 | 0.0 |
| 22.09.2021 | 17:34 | 19.2 | 62 | 11.7 | 1025.1 | 7.9 | NO | 174 | 0.0 |
| 22.09.2021 | 17:38 | 19.1 | 61 | 11.4 | 1025.1 | 9.7 | NNO | 165 | 0.0 |
| 22.09.2021 | 17:44 | 18.8 | 62 | 11.4 | 1025.1 | 6.5 | NO | 139 | 0.0 |
| 22.09.2021 | 17:48 | 18.7 | 63 | 11.5 | 1025.1 | 4.7 | N | 125 | 0.0 |
| 22.09.2021 | 17:54 | 18.4 | 64 | 11.5 | 1025.1 | 6.5 | N | 91 | 0.0 |
| 22.09.2021 | 17:58 | 18.3 | 64 | 11.4 | 1025.1 | 6.5 | N | 102 | 0.0 |
| 22.09.2021 | 18:04 | 18.2 | 66 | 11.7 | 1025.0 | 6.5 | N | 86 | 0.0 |
| 22.09.2021 | 18:08 | 17.9 | 67 | 11.7 | 1024.9 | 3.2 | N | 79 | 0.0 |
| 22.09.2021 | 18:14 | 17.8 | 68 | 11.8 | 1024.9 | 0.0 | N | 74 | 0.0 |
| 22.09.2021 | 18:18 | 17.7 | 68 | 11.7 | 1024.9 | 3.2 | NNO | 70 | 0.0 |
| 22.09.2021 | 18:24 | 17.5 | 69 | 11.7 | 1024.9 | 6.5 | N | 60 | 0.0 |
| 22.09.2021 | 18:28 | 17.3 | 69 | 11.6 | 1024.9 | 6.5 | N | 44 | 0.0 |
| 22.09.2021 | 18:34 | 17.2 | 71 | 11.9 | 1024.8 | 1.4 | N | 37 | 0.0 |
| 22.09.2021 | 18:38 | 17.1 | 71 | 11.8 | 1024.9 | 0.0 | N | 33 | 0.0 |
| 22.09.2021 | 18:44 | 16.9 | 72 | 11.8 | 1024.9 | 0.0 | NNO | 28 | 0.0 |
| 22.09.2021 | 18:48 | 16.7 | 72 | 11.6 | 1024.9 | 0.0 | NNO | 26 | 0.0 |
| 22.09.2021 | 18:54 | 16.6 | 73 | 11.7 | 1024.9 | 0.0 | NNO | 21 | 0.0 |
| 22.09.2021 | 18:58 | 16.4 | 74 | 11.8 | 1024.8 | 0.0 | NNO | 19 | 0.0 |
| 22.09.2021 | 19:04 | 16.2 | 74 | 11.6 | 1024.8 | 0.0 | NNO | 14 | 0.0 |
| 22.09.2021 | 19:08 | 16.1 | 75 | 11.7 | 1024.8 | 0.0 | NNO | 12 | 0.0 |
| 22.09.2021 | 19:14 | 15.8 | 76 | 11.6 | 1024.8 | 0.0 | NNO | 9 | 0.0 |
| 22.09.2021 | 19:18 | 15.5 | 78 | 11.7 | 1024.8 | 0.0 | NNO | 7 | 0.0 |
| 22.09.2021 | 19:24 | 15.0 | 80 | 11.6 | 1024.8 | 0.0 | NNO | 0 | 0.0 |
| 22.09.2021 | 19:28 | 14.7 | 81 | 11.5 | 1024.8 | 0.0 | NNO | 0 | 0.0 |
| 22.09.2021 | 19:34 | 14.4 | 81 | 11.2 | 1024.8 | 0.0 | NNO | 0 | 0.0 |
| 22.09.2021 | 19:38 | 14.3 | 82 | 11.3 | 1024.8 | 0.0 | NNO | 0 | 0.0 |
| 22.09.2021 | 19:44 | 14.1 | 82 | 11.1 | 1024.8 | 0.0 | NNO | 0 | 0.0 |
| 22.09.2021 | 19:48 | 13.8 | 83 | 11.0 | 1024.7 | 0.0 | NNO | 0 | 0.0 |
| 22.09.2021 | 19:54 | 13.7 | 84 | 11.0 | 1024.6 | 0.0 | NNO | 0 | 0.0 |
| 22.09.2021 | 19:58 | 13.6 | 84 | 10.9 | 1024.6 | 0.0 | NNO | 0 | 0.0 |
| 22.09.2021 | 20:04 | 13.4 | 85 | 10.9 | 1024.6 | 0.0 | NNO | 0 | 0.0 |
| 22.09.2021 | 20:08 | 13.3 | 85 | 10.8 | 1024.6 | 0.0 | NNO | 0 | 0.0 |
| 22.09.2021 | 20:14 | 13.3 | 85 | 10.8 | 1024.6 | 0.0 | NNO | 0 | 0.0 |
| 22.09.2021 | 20:18 | 13.2 | 86 | 10.9 | 1024.6 | 0.0 | NNO | 0 | 0.0 |
| 22.09.2021 | 20:24 | 13.2 | 86 | 10.9 | 1024.6 | 0.0 | NNO | 0 | 0.0 |
| 22.09.2021 | 20:28 | 12.9 | 86 | 10.6 | 1024.6 | 0.0 | NNO | 0 | 0.0 |
| 22.09.2021 | 20:34 | 12.7 | 87 | 10.6 | 1024.7 | 0.0 | NNO | 0 | 0.0 |
| 22.09.2021 | 20:38 | 12.6 | 87 | 10.5 | 1024.7 | 0.0 | NNO | 0 | 0.0 |
| 22.09.2021 | 20:44 | 12.6 | 87 | 10.5 | 1024.7 | 0.0 | N | 0 | 0.0 |
| 22.09.2021 | 20:48 | 12.6 | 87 | 10.5 | 1024.7 | 0.0 | N | 0 | 0.0 |
| 22.09.2021 | 20:54 | 12.4 | 87 | 10.3 | 1024.7 | 0.0 | N | 0 | 0.0 |
| 22.09.2021 | 20:58 | 12.3 | 88 | 10.4 | 1024.7 | 0.0 | N | 0 | 0.0 |
| 22.09.2021 | 21:04 | 12.1 | 89 | 10.3 | 1024.7 | 0.0 | N | 0 | 0.0 |
| 22.09.2021 | 21:08 | 12.1 | 89 | 10.3 | 1024.7 | 0.0 | N | 0 | 0.0 |
| 22.09.2021 | 21:14 | 12.1 | 89 | 10.3 | 1024.7 | 0.0 | N | 0 | 0.0 |
| 22.09.2021 | 21:18 | 12.0 | 89 | 10.2 | 1024.7 | 0.0 | N | 0 | 0.0 |
| 22.09.2021 | 21:24 | 11.9 | 90 | 10.3 | 1024.7 | 0.0 | N | 0 | 0.0 |
| 22.09.2021 | 21:28 | 11.8 | 90 | 10.2 | 1024.7 | 0.0 | N | 0 | 0.0 |
| 22.09.2021 | 21:34 | 11.9 | 89 | 10.1 | 1024.7 | 0.0 | NNW | 0 | 0.0 |
| 22.09.2021 | 21:38 | 11.9 | 90 | 10.3 | 1024.6 | 0.0 | N | 0 | 0.0 |
| 22.09.2021 | 21:44 | 11.8 | 90 | 10.2 | 1024.7 | 0.0 | N | 0 | 0.0 |
| 22.09.2021 | 21:48 | 11.7 | 90 | 10.1 | 1024.7 | 0.0 | N | 0 | 0.0 |
| 22.09.2021 | 21:54 | 11.7 | 90 | 10.1 | 1024.8 | 0.0 | N | 0 | 0.0 |
| 22.09.2021 | 21:58 | 11.6 | 90 | 10.0 | 1024.8 | 0.0 | N | 0 | 0.0 |
| 22.09.2021 | 22:04 | 11.5 | 91 | 10.1 | 1024.7 | 0.0 | N | 14 | 0.0 |
| 22.09.2021 | 22:08 | 11.4 | 91 | 10.0 | 1024.6 | 0.0 | N | 54 | 0.0 |
| 22.09.2021 | 22:14 | 11.3 | 91 | 9.9 | 1024.6 | 0.0 | N | 346 | 0.0 |
| 22.09.2021 | 22:18 | 11.3 | 91 | 9.9 | 1024.5 | 0.0 | N | 341 | 0.0 |
| 22.09.2021 | 22:24 | 11.1 | 91 | 9.7 | 1024.4 | 0.0 | N | 311 | 0.0 |
| 22.09.2021 | 22:28 | 11.1 | 91 | 9.7 | 1024.5 | 0.0 | N | 301 | 0.0 |
| 22.09.2021 | 22:34 | 10.9 | 92 | 9.7 | 1024.5 | 0.0 | N | 283 | 0.0 |
| 22.09.2021 | 22:38 | 10.8 | 92 | 9.6 | 1024.5 | 0.0 | N | 288 | 0.0 |
| 22.09.2021 | 22:44 | 10.9 | 92 | 9.7 | 1024.5 | 0.0 | N | 309 | 0.0 |
| 22.09.2021 | 22:48 | 10.8 | 92 | 9.6 | 1024.4 | 0.0 | N | 330 | 0.0 |
| 22.09.2021 | 22:54 | 10.8 | 92 | 9.6 | 1024.3 | 0.0 | N | 274 | 0.0 |
| 22.09.2021 | 22:58 | 10.8 | 92 | 9.6 | 1024.2 | 0.0 | N | 244 | 0.0 |
| 22.09.2021 | 23:04 | 10.8 | 92 | 9.6 | 1024.2 | 0.0 | N | 218 | 0.0 |
| 22.09.2021 | 23:08 | 10.8 | 92 | 9.6 | 1024.1 | 1.4 | N | 211 | 0.0 |
| 22.09.2021 | 23:14 | 10.8 | 91 | 9.4 | 1024.2 | 4.7 | N | 211 | 0.0 |
| 22.09.2021 | 23:18 | 10.8 | 91 | 9.4 | 1024.1 | 4.7 | N | 223 | 0.0 |
| 22.09.2021 | 23:24 | 10.7 | 92 | 9.5 | 1024.1 | 4.7 | N | 318 | 0.0 |
| 22.09.2021 | 23:28 | 10.7 | 92 | 9.5 | 1024.1 | 4.7 | N | 320 | 0.0 |
| 22.09.2021 | 23:34 | 10.6 | 92 | 9.4 | 1024.1 | 4.7 | N | 378 | 0.0 |
| 22.09.2021 | 23:38 | 10.6 | 91 | 9.2 | 1024.1 | 4.7 | N | 374 | 0.0 |
| 22.09.2021 | 23:44 | 10.6 | 92 | 9.4 | 1024.2 | 4.7 | N | 294 | 0.0 |
| 22.09.2021 | 23:48 | 10.5 | 92 | 9.3 | 1024.1 | 4.7 | N | 262 | 0.0 |
| 22.09.2021 | 23:54 | 10.6 | 92 | 9.4 | 1024.2 | 4.7 | N | 244 | 0.0 |
| 22.09.2021 | 23:58 | 10.6 | 91 | 9.2 | 1024.2 | 4.7 | N | 234 | 0.0 |